METAR AND TAF INFORMATION
METAR FOR VEGT
ADDS - METARS form results

(0629 UTC 03 February 2023)
Data provider http://aviationweather.gov/metar/data/
 
METAR text: VEGT 030600Z 01003KT 2500 HZ FEW020 27/21 Q1013 NOSIG
Conditions at: VEGT (GAUHATI (IN-AFB), IN) observed 0600 UTC 03 February 2023
Temperature: 27.0°C (81°F)
Dewpoint: 21.0°C (70°F) [RH = 70%]
Pressure (altimeter): 29.91 inches Hg (1013.0 mb)
Winds: from the N (10 degrees) at 3 MPH (3 knots; 1.5 m/s)
Visibility: 1.55 miles (2.49 km)
Ceiling: at least 12,000 feet AGL
Clouds: few clouds at 2000 feet AGL
Weather: HZ  (haze)

METAR text: VEGT 030530Z 04004KT 2200 HZ FEW020 27/21 Q1013 BECMG 3000 BR
Conditions at: VEGT (GAUHATI (IN-AFB), IN) observed 0530 UTC 03 February 2023
Temperature: 27.0°C (81°F)
Dewpoint: 21.0°C (70°F) [RH = 70%]
Pressure (altimeter): 29.91 inches Hg (1013.0 mb)
Winds: from the NE (40 degrees) at 5 MPH (4 knots; 2.1 m/s)
Visibility: 1.37 miles (2.20 km)
Ceiling: at least 12,000 feet AGL
Clouds: few clouds at 2000 feet AGL
Weather: HZ  (haze)

Forecast for: VEGT (GAUHATI (IN-AFB), IN)
Text: TAF VEGT 030500Z 0306/0315 05005KT 3000 HZ FEW020
Forecast period: 0600 to 1200 UTC 03 February 2023
Forecast type: FROM: standard forecast or significant change
Winds: from the NE (50 degrees) at 6 MPH (5 knots; 2.6 m/s)
Visibility: 1.86 miles (2.99 km)
Ceiling: at least 12,000 feet AGL
Clouds: few clouds at 2000 feet AGL
Weather: HZ  (haze)
Text: BECMG 0312/0314 00000KT 1500 BR
Forecast period: 1200 to 1500 UTC 03 February 2023
Forecast type: BECOMING: Conditions expected to become as follows by 1400 UTC 03 February 2023
Winds: calm
Visibility: 0.93 miles (1.50 km)
Ceiling: at least 12,000 feet AGL
Clouds: few clouds at 2000 feet AGL
Weather: BR  (mist)

 AIRPORT MAP

 RUNWAY INFORMATION
Runway 02 Runway length 9000 ft Runway width 150 ft
Runway elevation 162 ft Runway displaced threshold 0 ft Runway heading 23
Runway 20 Runway length 9000 ft Runway width 150 ft
Runway elevation 162 ft Runway displaced threshold 0 ft Runway heading 203

 AIRPORT FREQUENCIES
Type APP Name APP Frequency 123.3 MHZ
Type ATIS Name ATIS Frequency 126.6 MHZ
Type GND Name GND Frequency 121.9 MHZ
Type TWR Name TWR Frequency 118.75 MHZ

 AIRPORT NEAR NAVIGATION AIDS
Type VOR-DME Name Barapani Frequency 116000 KHZ
Type VOR-DME Name Guwahati Frequency 117600 KHZ
Type NDB Name Guwahati Frequency 360 KHZ